Time;durP1;ratioP1;P1;durP2;ratioP2;P2;SDS_P1;SDS_P2;PMS_P1;PMS_P2;Temp;Humidity;BMP_temperature;BMP_pressure;BME280_temperature;BME280_humidity;BME280_pressure;Samples;Min_cycle;Max_cycle;Signal;HPM_P1;HPM_P2
2022/07/23 00:04:15;;;;;;;2.00;1.77;;;;;;;20.97;64.64;100044.34;10525193;28;20051;-70
2022/07/23 00:09:16;;;;;;;1.90;1.60;;;;;;;20.82;65.51;100042.84;10548617;28;20039;-70
2022/07/23 00:14:18;;;;;;;1.77;1.67;;;;;;;20.74;65.94;100038.06;10553313;28;20039;-75
2022/07/23 00:19:20;;;;;;;2.20;2.00;;;;;;;20.56;67.09;100037.59;10551679;28;20040;-71
2022/07/23 00:24:21;;;;;;;1.55;1.45;;;;;;;20.61;66.85;100027.41;10564516;22;20128;-69
2022/07/23 00:29:23;;;;;;;1.80;1.60;;;;;;;20.62;66.54;100036.28;10548157;28;20381;-69
2022/07/23 00:34:25;;;;;;;3.08;2.00;;;;;;;20.44;67.88;100029.59;10546521;28;20054;-69
2022/07/23 00:39:27;;;;;;;2.05;1.95;;;;;;;20.18;69.13;100029.63;10528087;28;20085;-68
2022/07/23 00:44:28;;;;;;;2.20;2.10;;;;;;;20.21;68.75;100029.44;10527819;28;20052;-68
2022/07/23 00:49:30;;;;;;;2.03;1.90;;;;;;;20.30;68.81;100025.25;10527753;28;20051;-69
2022/07/23 00:54:32;;;;;;;2.10;1.90;;;;;;;20.10;69.97;100032.88;10545950;28;20512;-68
2022/07/23 00:59:34;;;;;;;3.13;2.25;;;;;;;19.94;70.55;100020.72;10527156;28;20493;-68
2022/07/23 01:04:36;;;;;;;2.20;2.10;;;;;;;20.09;70.41;100023.16;10545902;28;20040;-68
2022/07/23 01:09:38;;;;;;;2.30;2.10;;;;;;;19.96;71.30;100016.13;10545118;28;20059;-68
2022/07/23 01:14:39;;;;;;;2.00;1.90;;;;;;;19.96;71.71;100010.78;10544993;28;20036;-68
2022/07/23 01:19:41;;;;;;;2.40;2.03;;;;;;;19.89;72.09;100005.91;10525457;28;20116;-68
2022/07/23 01:24:43;;;;;;;2.33;2.22;;;;;;;20.02;71.67;99991.69;10526392;28;20098;-68
2022/07/23 01:29:45;;;;;;;3.13;2.15;;;;;;;20.01;71.40;99989.97;10526253;28;20048;-68
2022/07/23 01:34:51;;;;;;;1.90;1.80;;;;;;;19.93;72.06;99976.34;10526223;28;20470;-68
2022/07/23 01:39:54;;;;;;;2.38;2.20;;;;;;;19.85;71.61;99971.56;10525851;28;20043;-68
2022/07/23 01:44:57;;;;;;;2.35;2.20;;;;;;;19.95;71.61;99961.91;10525433;28;20135;-68
2022/07/23 01:49:59;;;;;;;2.63;2.42;;;;;;;19.82;72.45;99951.28;10525397;28;20043;-68
2022/07/23 01:55:16;;;;;;;2.40;2.20;;;;;;;19.89;71.78;99954.38;10526336;28;20501;-68
2022/07/23 02:00:21;;;;;;;2.33;2.20;;;;;;;19.74;73.14;99948.28;10525011;28;20044;-68
2022/07/23 02:05:28;;;;;;;4.40;2.13;;;;;;;19.64;73.27;99942.75;10524943;28;20048;-69
2022/07/23 02:10:30;;;;;;;2.42;2.22;;;;;;;19.48;74.46;99934.13;10543338;28;20062;-69
2022/07/23 02:15:32;;;;;;;2.08;1.98;;;;;;;19.52;74.32;99945.41;10524272;28;20047;-68
2022/07/23 02:20:34;;;;;;;2.53;2.33;;;;;;;19.51;74.56;99944.56;10507739;28;20048;-68
2022/07/23 02:25:36;;;;;;;2.80;2.60;;;;;;;19.78;73.17;99936.44;10523852;28;20455;-68
2022/07/23 02:30:39;;;;;;;2.40;2.30;;;;;;;19.79;72.95;99938.19;10523487;28;20048;-68
2022/07/23 02:35:40;;;;;;;2.42;2.33;;;;;;;19.74;73.14;99948.28;10541662;28;20044;-68
2022/07/23 02:40:42;;;;;;;2.80;2.58;;;;;;;19.55;74.68;99937.19;10523303;28;20463;-68
2022/07/23 02:45:44;;;;;;;2.83;2.63;;;;;;;19.47;74.83;99927.06;10523054;28;20048;-68
2022/07/23 02:50:46;;;;;;;3.28;2.72;;;;;;;19.56;74.13;99926.41;10523077;28;20093;-68
2022/07/23 02:55:52;;;;;;;3.17;2.33;;;;;;;19.55;74.30;99900.72;10522911;28;20047;-68
2022/07/23 03:00:55;;;;;;;3.20;3.00;;;;;;;19.50;74.67;99902.03;10522600;28;20131;-68
2022/07/23 03:05:58;;;;;;;3.25;3.00;;;;;;;19.36;75.46;99916.31;10522340;28;20044;-68
2022/07/23 03:11:00;;;;;;;2.85;2.58;;;;;;;19.22;76.43;99916.44;10522207;28;20076;-68
2022/07/23 03:16:02;;;;;;;3.38;3.03;;;;;;;19.15;76.91;99914.19;10522045;28;20056;-68
2022/07/23 03:21:04;;;;;;;3.60;3.03;;;;;;;19.28;76.02;99916.00;10539939;28;20048;-68
2022/07/23 03:26:06;;;;;;;2.97;2.78;;;;;;;19.35;75.99;99906.63;10539645;28;20485;-68
2022/07/23 03:31:08;;;;;;;2.30;2.20;;;;;;;19.38;75.77;99895.72;10521648;28;20044;-68
2022/07/23 03:36:11;;;;;;;2.88;2.67;;;;;;;19.46;75.18;99896.06;10521852;28;20473;-68
2022/07/23 03:41:17;;;;;;;3.30;2.92;;;;;;;19.24;76.22;99890.53;10520613;28;20048;-68
2022/07/23 03:46:19;;;;;;;3.03;2.78;;;;;;;19.28;76.04;99886.69;10521061;28;20555;-68
2022/07/23 03:51:21;;;;;;;4.97;2.95;;;;;;;19.14;76.88;99892.97;10521012;28;20047;-68
2022/07/23 03:56:23;;;;;;;5.07;2.90;;;;;;;19.12;77.08;99885.09;10520867;28;20485;-68
2022/07/23 04:01:25;;;;;;;3.38;3.08;;;;;;;18.97;78.20;99883.50;10539167;28;20047;-68
2022/07/23 04:06:27;;;;;;;2.90;2.70;;;;;;;18.85;78.91;99903.81;10520669;28;20097;-68
2022/07/23 04:11:30;;;;;;;2.50;2.30;;;;;;;18.88;79.04;99892.13;10520654;28;20036;-68
2022/07/23 04:16:32;;;;;;;2.97;2.75;;;;;;;18.95;78.39;99884.53;10538616;28;20052;-68
2022/07/23 04:21:34;;;;;;;3.22;2.90;;;;;;;18.99;77.96;99892.25;10504085;28;20076;-68
2022/07/23 04:26:35;;;;;;;2.92;2.83;;;;;;;19.09;77.62;99887.13;10520377;28;20052;-68
2022/07/23 04:31:38;;;;;;;3.45;2.92;;;;;;;19.01;77.96;99889.47;10520393;28;20071;-68
2022/07/23 04:36:41;;;;;;;3.05;2.85;;;;;;;18.90;78.66;99907.03;10520856;28;20501;-68
2022/07/23 04:41:42;;;;;;;4.15;3.10;;;;;;;18.81;78.86;99898.81;10538109;28;20584;-68
2022/07/23 04:46:44;;;;;;;3.95;3.55;;;;;;;18.51;80.67;99891.91;10519820;28;20055;-68
2022/07/23 04:51:48;;;;;;;3.53;3.22;;;;;;;18.59;78.76;99896.69;10519845;28;20040;-68
2022/07/23 04:56:50;;;;;;;3.33;3.13;;;;;;;18.59;78.85;99910.00;10545386;28;20111;-68
2022/07/23 05:01:51;;;;;;;3.70;3.50;;;;;;;18.80;77.76;99886.44;10527248;28;20138;-68
2022/07/23 05:06:53;;;;;;;3.20;2.92;;;;;;;18.98;76.61;99893.19;10527110;28;20505;-68
2022/07/23 05:11:55;;;;;;;3.20;3.00;;;;;;;19.02;76.67;99901.81;10526902;28;20078;-67
2022/07/23 05:16:57;;;;;;;4.00;3.70;;;;;;;19.24;76.10;99915.34;10526503;28;20044;-68
2022/07/23 05:22:00;;;;;;;3.10;2.78;;;;;;;19.16;75.79;99929.19;10526396;28;20131;-68
2022/07/23 05:27:02;;;;;;;3.83;3.03;;;;;;;19.40;75.35;99925.81;10526063;28;20145;-67
2022/07/23 05:32:04;;;;;;;3.30;3.00;;;;;;;19.31;75.29;99921.13;10526156;28;20071;-68
2022/07/23 05:37:08;;;;;;;4.05;3.53;;;;;;;19.45;74.00;99928.16;10525861;28;20050;-67
2022/07/23 05:42:10;;;;;;;4.07;3.28;;;;;;;19.33;74.74;99969.84;10525458;28;20044;-68
2022/07/23 05:47:13;;;;;;;3.40;3.10;;;;;;;19.31;75.00;99982.44;10525515;28;20143;-68
2022/07/23 05:52:15;;;;;;;4.90;3.78;;;;;;;19.23;74.51;99968.78;10525124;28;20044;-68
2022/07/23 05:57:34;;;;;;;4.63;3.30;;;;;;;19.24;74.53;99995.31;10511427;28;20050;-68
2022/07/23 06:02:37;;;;;;;4.20;3.90;;;;;;;19.19;74.54;100005.44;10524788;28;20050;-68
2022/07/23 06:07:40;;;;;;;5.00;4.60;;;;;;;18.92;74.88;100023.28;10524083;28;20109;-68
2022/07/23 06:12:42;;;;;;;5.47;5.07;;;;;;;18.84;75.62;100021.97;10542678;28;20386;-68
2022/07/23 06:17:44;;;;;;;5.35;5.05;;;;;;;18.77;75.80;100030.44;10524330;28;20051;-68
2022/07/23 06:22:46;;;;;;;5.38;4.97;;;;;;;18.62;76.50;100045.59;10508808;28;20040;-67
2022/07/23 06:27:48;;;;;;;7.07;6.35;;;;;;;18.47;77.12;100051.91;10512693;22;20047;-72
2022/07/23 06:32:50;;;;;;;6.18;5.68;;;;;;;18.74;75.80;100051.97;10524924;28;20135;-72
2022/07/23 06:37:52;;;;;;;7.57;6.88;;;;;;;18.88;75.04;100054.56;10525541;28;20102;-72
2022/07/23 06:42:55;;;;;;;6.88;6.38;;;;;;;19.02;74.19;100051.84;10524806;28;20046;-72
2022/07/23 06:47:57;;;;;;;6.68;6.18;;;;;;;18.98;73.86;100054.81;10542072;28;20044;-72
2022/07/23 06:52:59;;;;;;;7.53;6.20;;;;;;;19.32;72.30;100053.41;10516108;28;20036;-72
2022/07/23 06:58:00;;;;;;;6.38;5.70;;;;;;;19.32;71.61;100032.94;10500684;28;20044;-72
2022/07/23 07:03:02;;;;;;;5.38;4.97;;;;;;;19.58;70.78;100041.84;10506558;28;20048;-72
2022/07/23 07:08:04;;;;;;;6.40;5.90;;;;;;;20.31;66.86;100034.94;10528263;28;20037;-72
2022/07/23 07:13:06;;;;;;;5.30;4.90;;;;;;;20.94;63.67;100017.00;10517960;28;20109;-72
2022/07/23 07:18:07;;;;;;;5.00;4.63;;;;;;;21.12;62.72;100015.63;10540230;28;20115;-72
2022/07/23 07:23:09;;;;;;;4.95;4.55;;;;;;;21.08;62.77;99992.78;10524677;28;20040;-72
2022/07/23 07:28:12;;;;;;;5.30;4.88;;;;;;;21.11;62.29;100029.94;10540572;28;20036;-72
2022/07/23 07:33:14;;;;;;;5.65;5.10;;;;;;;20.74;63.23;100018.50;10540202;28;20051;-72
2022/07/23 07:38:16;;;;;;;5.38;4.97;;;;;;;21.06;62.37;100024.94;10540335;28;20048;-73
2022/07/23 07:43:18;;;;;;;5.00;4.60;;;;;;;21.65;60.09;100032.94;10542603;28;20089;-72
2022/07/23 07:48:20;;;;;;;6.65;4.47;;;;;;;22.14;59.02;100021.06;10521914;28;20050;-70
2022/07/23 07:53:21;;;;;;;4.35;4.05;;;;;;;22.93;56.34;100036.97;10539615;28;20071;-70
2022/07/23 07:58:26;;;;;;;4.30;3.90;;;;;;;23.36;53.89;100018.13;10539453;28;20593;-71
2022/07/23 08:03:29;;;;;;;4.90;3.60;;;;;;;23.38;54.54;100002.75;10539914;28;20051;-71
2022/07/23 08:08:31;;;;;;;4.40;4.00;;;;;;;23.33;53.85;100005.00;10523473;28;20050;-71
2022/07/23 08:13:33;;;;;;;4.10;3.80;;;;;;;23.34;53.96;100005.84;10539823;28;20054;-71
2022/07/23 08:18:35;;;;;;;3.33;3.03;;;;;;;23.40;54.38;99991.88;10515291;28;20047;-70
2022/07/23 08:23:36;;;;;;;3.53;3.22;;;;;;;23.27;54.10;99989.41;10498583;28;20048;-70
2022/07/23 08:28:38;;;;;;;3.30;3.03;;;;;;;23.99;52.95;99987.69;10501815;28;20064;-71
2022/07/23 08:33:40;;;;;;;3.10;2.90;;;;;;;23.97;52.35;99990.50;10505816;28;20386;-71
2022/07/23 08:38:43;;;;;;;4.05;3.33;;;;;;;24.12;52.55;99983.75;10488017;28;20044;-71
2022/07/23 08:43:45;;;;;;;3.33;2.80;;;;;;;24.55;51.16;99987.16;10506116;28;20466;-70
2022/07/23 08:48:48;;;;;;;3.90;3.30;;;;;;;24.86;49.70;99990.56;10520727;28;20044;-70
2022/07/23 08:53:50;;;;;;;3.85;3.53;;;;;;;24.71;50.14;99992.00;10529642;28;20051;-70
2022/07/23 08:58:54;;;;;;;3.45;3.15;;;;;;;24.94;49.91;100001.47;10548322;28;20044;-71
2022/07/23 09:03:56;;;;;;;3.63;3.30;;;;;;;24.92;49.81;100000.75;10543505;28;20408;-71
2022/07/23 09:08:57;;;;;;;4.35;3.92;;;;;;;24.81;50.24;99995.53;10522941;28;20039;-71
2022/07/23 09:14:01;;;;;;;3.63;3.33;;;;;;;24.67;50.79;100016.47;10524688;28;20040;-70
2022/07/23 09:19:05;;;;;;;3.72;3.17;;;;;;;24.38;51.00;100013.69;10517525;28;20123;-71
2022/07/23 09:24:09;;;;;;;3.05;2.80;;;;;;;24.87;50.41;100003.03;10545891;28;20043;-71
2022/07/23 09:29:19;;;;;;;3.95;3.65;;;;;;;25.36;49.08;100006.56;10527411;28;20032;-70
2022/07/23 09:34:26;;;;;;;3.50;3.20;;;;;;;25.52;48.09;100001.44;10531099;28;20115;-70
2022/07/23 09:39:32;;;;;;;3.97;3.13;;;;;;;24.70;49.77;100015.31;10503976;28;20044;-71
2022/07/23 09:44:56;;;;;;;3.60;3.08;;;;;;;25.16;48.94;100027.25;10526654;28;20044;-71
2022/07/23 09:50:08;;;;;;;3.45;3.15;;;;;;;25.25;49.73;100028.25;10507714;28;20498;-71
2022/07/23 09:55:10;;;;;;;3.20;2.67;;;;;;;25.52;48.80;100038.25;10504032;28;20052;-71
2022/07/23 10:00:12;;;;;;;13.32;3.67;;;;;;;25.66;47.23;100025.19;10502027;28;20040;-71
2022/07/23 10:05:15;;;;;;;3.78;3.22;;;;;;;25.07;48.96;100036.16;10523298;28;20044;-71
2022/07/23 10:10:39;;;;;;;3.33;3.05;;;;;;;25.56;48.44;100042.38;10541487;28;20048;-71
2022/07/23 10:15:51;;;;;;;3.95;3.40;;;;;;;25.62;47.62;100039.09;10546095;28;20052;-71
2022/07/23 10:20:53;;;;;;;3.55;3.25;;;;;;;25.67;47.22;100040.34;10524875;28;20143;-71
2022/07/23 10:26:19;;;;;;;4.35;3.58;;;;;;;25.98;47.62;100048.22;10542979;28;20547;-72
2022/07/23 10:31:49;;;;;;;3.30;2.90;;;;;;;26.23;46.48;100060.19;10542875;28;20131;-71
2022/07/23 10:37:17;;;;;;;3.60;3.15;;;;;;;26.50;45.62;100072.84;10543025;28;20122;-72
2022/07/23 10:42:34;;;;;;;3.53;3.13;;;;;;;26.69;45.14;100060.25;10543549;28;20086;-71
2022/07/23 10:47:42;;;;;;;3.67;3.05;;;;;;;26.82;45.76;100068.81;10530628;28;20039;-70
2022/07/23 10:53:06;;;;;;;3.67;3.38;;;;;;;26.19;45.93;100076.78;10506468;28;20040;-71
2022/07/23 10:58:08;;;;;;;3.22;2.83;;;;;;;26.31;46.53;100071.06;10525082;28;20054;-72
2022/07/23 11:03:33;;;;;;;3.92;3.35;;;;;;;27.01;45.07;100071.38;10523952;28;20123;-71
2022/07/23 11:08:35;;;;;;;4.10;3.65;;;;;;;26.69;45.02;100071.88;10500429;28;20052;-72
2022/07/23 11:13:42;;;;;;;3.88;3.20;;;;;;;26.68;44.71;100064.78;10499495;28;20127;-70
2022/07/23 11:18:43;;;;;;;3.95;2.92;;;;;;;26.84;45.07;100064.97;10505924;28;20517;-70
2022/07/23 11:23:57;;;;;;;3.97;3.33;;;;;;;26.19;46.40;100083.03;10543234;28;20126;-70
2022/07/23 11:29:25;;;;;;;3.40;3.10;;;;;;;25.20;48.69;100077.09;10523161;28;20093;-70
2022/07/23 11:34:39;;;;;;;3.42;3.00;;;;;;;25.10;50.40;100090.56;10540678;28;20044;-70
2022/07/23 11:39:46;;;;;;;3.63;3.30;;;;;;;24.49;52.50;100088.00;10540244;28;20123;-71
2022/07/23 11:44:48;;;;;;;4.82;3.08;;;;;;;24.23;53.74;100095.63;10524354;28;20047;-71
2022/07/23 11:49:59;;;;;;;4.25;3.10;;;;;;;24.16;53.37;100076.50;10540491;28;20393;-71
2022/07/23 11:55:07;;;;;;;3.50;3.03;;;;;;;24.02;54.54;100087.59;10540698;28;20048;-71
2022/07/23 12:00:15;;;;;;;4.00;3.70;;;;;;;24.00;53.97;100099.47;10541190;28;20048;-71
2022/07/23 12:05:18;;;;;;;4.13;3.28;;;;;;;24.06;53.93;100097.09;10551683;28;20044;-70
2022/07/23 12:10:28;;;;;;;3.90;3.60;;;;;;;23.33;57.37;100106.03;10553987;28;20036;-71
2022/07/23 12:15:33;;;;;;;3.95;3.65;;;;;;;23.14;58.71;100096.84;10553297;28;20550;-71
2022/07/23 12:20:41;;;;;;;5.05;3.85;;;;;;;22.92;59.33;100113.84;10535813;28;20036;-71
2022/07/23 12:25:45;;;;;;;5.45;4.38;;;;;;;22.96;59.15;100113.59;10554371;28;20050;-73
2022/07/23 12:30:52;;;;;;;4.40;4.00;;;;;;;22.91;59.56;100108.63;10535746;28;20610;-73
2022/07/23 12:35:56;;;;;;;6.95;4.78;;;;;;;23.12;59.25;100122.09;10552940;28;20382;-73
2022/07/23 12:41:02;;;;;;;4.40;4.10;;;;;;;23.83;57.24;100112.53;10544669;28;20044;-73
2022/07/23 12:46:05;;;;;;;4.63;4.22;;;;;;;23.88;57.08;100112.13;10534634;28;20048;-71
2022/07/23 12:51:13;;;;;;;4.80;4.40;;;;;;;24.04;55.86;100096.41;10554644;28;20482;-72
2022/07/23 12:56:26;;;;;;;4.38;4.00;;;;;;;24.06;56.02;100107.84;10554290;28;20036;-74
2022/07/23 13:01:30;;;;;;;4.97;3.63;;;;;;;24.64;53.78;100115.31;10554093;28;20066;-73
2022/07/23 13:06:57;;;;;;;4.80;4.47;;;;;;;24.12;54.93;100114.50;10552552;28;20074;-74
2022/07/23 13:12:00;;;;;;;5.00;4.60;;;;;;;23.98;56.25;100114.88;10555579;28;20046;-74
2022/07/23 13:17:02;;;;;;;5.32;4.90;;;;;;;24.56;54.16;100112.47;10529741;28;20504;-73
2022/07/23 13:22:07;;;;;;;5.07;4.55;;;;;;;24.41;54.97;100114.69;10546557;28;20436;-72
2022/07/23 13:27:10;;;;;;;4.85;4.45;;;;;;;24.34;54.07;100117.00;10545940;28;20067;-73
2022/07/23 13:32:13;;;;;;;5.05;4.65;;;;;;;24.44;54.49;100103.69;10544751;28;20074;-73
2022/07/23 13:37:15;;;;;;;4.93;4.53;;;;;;;24.78;54.05;100106.88;10546534;28;20036;-72
2022/07/23 13:42:17;;;;;;;4.40;4.10;;;;;;;24.97;53.46;100111.47;10544530;28;20044;-71
2022/07/23 13:47:19;;;;;;;5.40;5.03;;;;;;;24.61;53.45;100124.53;10517308;28;20139;-72
2022/07/23 13:52:20;;;;;;;4.53;4.20;;;;;;;24.62;53.59;100114.63;10527165;28;20512;-73
2022/07/23 13:57:22;;;;;;;5.38;4.95;;;;;;;25.22;51.09;100102.00;10515458;28;20048;-72
2022/07/23 14:02:25;;;;;;;5.18;4.75;;;;;;;24.74;52.22;100116.19;10504201;28;20106;-71
2022/07/23 14:07:27;;;;;;;4.80;4.45;;;;;;;24.61;52.83;100118.28;10542441;28;20441;-71
2022/07/23 14:12:28;;;;;;;5.65;4.95;;;;;;;24.64;53.19;100101.88;10520911;28;20066;-72
2022/07/23 14:17:40;;;;;;;3.90;3.65;;;;;;;25.40;50.63;100107.53;10544971;28;20048;-72
2022/07/23 14:22:43;;;;;;;5.60;3.92;;;;;;;24.99;51.68;100111.31;10542959;28;20066;-72
2022/07/23 14:27:45;;;;;;;4.38;4.07;;;;;;;24.91;51.08;100114.69;10510871;28;20072;-72
2022/07/23 14:32:46;;;;;;;4.75;4.35;;;;;;;25.26;50.41;100102.56;10501168;28;20049;-72
2022/07/23 14:37:48;;;;;;;4.88;4.57;;;;;;;25.52;49.50;100106.41;10500620;28;20056;-72
2022/07/23 14:42:50;;;;;;;5.40;4.90;;;;;;;24.77;51.36;100104.31;10515820;28;20123;-73
2022/07/23 14:47:52;;;;;;;4.72;4.32;;;;;;;24.68;50.96;100100.63;10542367;28;20048;-72
2022/07/23 14:52:54;;;;;;;5.03;4.63;;;;;;;24.93;50.02;100107.34;10542189;28;20040;-72
2022/07/23 14:57:56;;;;;;;5.85;5.00;;;;;;;25.40;49.06;100107.53;10542391;28;20127;-73
2022/07/23 15:02:58;;;;;;;6.78;5.35;;;;;;;25.20;49.59;100105.84;10543833;28;20493;-72
2022/07/23 15:08:01;;;;;;;7.18;5.03;;;;;;;24.75;50.75;100112.53;10542036;28;20097;-73
2022/07/23 15:13:03;;;;;;;7.07;4.82;;;;;;;24.66;50.84;100118.75;10541907;28;20032;-73
2022/07/23 15:18:04;;;;;;;5.20;4.72;;;;;;;24.47;51.55;100119.50;10516950;28;20074;-74
2022/07/23 15:23:07;;;;;;;6.40;5.55;;;;;;;25.15;49.19;100119.72;10516061;28;20036;-74
2022/07/23 15:28:10;;;;;;;6.70;6.20;;;;;;;25.21;48.94;100118.28;10542216;28;20494;-72
2022/07/23 15:33:12;;;;;;;7.30;6.90;;;;;;;25.24;48.17;100107.25;10541995;28;20040;-72
2022/07/23 15:38:22;;;;;;;6.40;6.00;;;;;;;24.97;49.60;100105.19;10523813;28;20080;-72
2022/07/23 15:43:26;;;;;;;8.88;8.23;;;;;;;24.78;50.15;100111.41;10540477;28;20040;-73
2022/07/23 15:48:29;;;;;;;9.20;8.60;;;;;;;23.83;52.22;100109.84;10542407;28;20101;-73
2022/07/23 15:53:32;;;;;;;7.88;7.38;;;;;;;23.96;52.22;100095.38;10539751;28;20043;-73
2022/07/23 15:58:54;;;;;;;11.93;8.18;;;;;;;23.98;52.53;100101.44;10521625;28;20089;-73
2022/07/23 16:03:58;;;;;;;6.82;6.32;;;;;;;23.99;52.24;100097.75;10539831;28;20511;-73
2022/07/23 16:09:02;;;;;;;7.57;7.07;;;;;;;24.06;52.41;100096.25;10523899;28;20047;-74
2022/07/23 16:14:06;;;;;;;;;;;;;;;24.35;51.35;100088.34;10541082;28;20040;-74
2022/07/23 16:19:08;;;;;;;7.75;7.20;;;;;;;24.03;52.25;100097.34;10540151;28;19920;-74
2022/07/23 16:24:09;;;;;;;8.15;7.53;;;;;;;24.24;51.83;100105.38;10504953;28;20041;-74
2022/07/23 16:29:11;;;;;;;7.95;7.25;;;;;;;24.17;52.37;100098.84;10515030;28;20044;-74
2022/07/23 16:34:20;;;;;;;9.40;7.80;;;;;;;24.42;51.71;100101.09;10500289;28;20106;-74
2022/07/23 16:39:22;;;;;;;9.77;7.93;;;;;;;24.31;52.01;100105.72;10493027;28;20524;-73
2022/07/23 16:44:25;;;;;;;7.60;7.00;;;;;;;24.32;52.02;100105.56;10538883;28;20044;-73
2022/07/23 16:49:27;;;;;;;8.63;7.93;;;;;;;23.95;52.63;100094.50;10541622;28;20047;-73
2022/07/23 16:54:28;;;;;;;10.68;9.85;;;;;;;24.06;52.92;100097.09;10548126;28;20055;-74
2022/07/23 16:59:30;;;;;;;8.75;8.15;;;;;;;23.99;53.02;100109.34;10508001;28;20056;-72
2022/07/23 17:04:32;;;;;;;8.50;7.80;;;;;;;23.98;52.53;100110.34;10503961;28;20045;-72
2022/07/23 17:09:34;;;;;;;8.00;7.50;;;;;;;23.73;53.14;100110.75;10485351;28;20044;-72
2022/07/23 17:14:36;;;;;;;8.70;8.10;;;;;;;24.00;52.43;100108.38;10505879;28;20040;-72
2022/07/23 17:19:38;;;;;;;8.27;7.68;;;;;;;24.10;52.02;100113.81;10484940;28;20086;-71
2022/07/23 17:24:40;;;;;;;8.40;7.55;;;;;;;24.20;51.43;100113.84;10503453;28;20413;-73
2022/07/23 17:29:46;;;;;;;6.32;5.93;;;;;;;24.09;50.73;100112.97;10509951;28;20123;-71
2022/07/23 17:34:47;;;;;;;6.75;6.25;;;;;;;23.80;51.51;100120.81;10545368;28;20047;-71
2022/07/23 17:39:49;;;;;;;7.72;6.97;;;;;;;23.59;52.47;100126.16;10546091;28;20047;-72
2022/07/23 17:44:52;;;;;;;7.50;6.75;;;;;;;23.64;52.08;100126.66;10526139;28;20055;-72
2022/07/23 17:49:55;;;;;;;6.53;6.00;;;;;;;23.45;53.06;100130.97;10545071;28;20062;-72
2022/07/23 17:54:57;;;;;;;6.47;6.07;;;;;;;23.17;53.53;100141.34;10525744;28;20067;-71
2022/07/23 17:59:59;;;;;;;6.38;5.88;;;;;;;23.16;53.42;100142.31;10544736;28;20036;-72
2022/07/23 18:05:00;;;;;;;7.38;5.95;;;;;;;23.47;51.67;100139.78;10545512;28;20119;-72
2022/07/23 18:10:03;;;;;;;5.38;4.95;;;;;;;23.16;51.83;100139.63;10545374;28;20451;-72
2022/07/23 18:15:06;;;;;;;6.13;5.63;;;;;;;23.05;51.79;100150.38;10526150;28;20405;-72
2022/07/23 18:20:09;;;;;;;5.88;5.43;;;;;;;23.01;51.28;100148.94;10543299;28;20044;-72
2022/07/23 18:25:11;;;;;;;5.22;4.72;;;;;;;22.91;51.27;100148.84;10558835;22;20470;-83
2022/07/23 18:30:13;;;;;;;5.00;4.47;;;;;;;23.06;50.78;100152.94;10413926;28;20037;-82
2022/07/23 18:35:15;;;;;;;5.18;4.88;;;;;;;22.97;50.92;100156.38;10429971;28;20483;-84
2022/07/23 18:40:17;;;;;;;5.43;4.97;;;;;;;23.05;50.75;100155.75;10412118;28;20041;-82
2022/07/23 18:45:18;;;;;;;5.32;4.90;;;;;;;22.85;51.04;100157.34;10430677;28;20476;-83
2022/07/23 18:50:21;;;;;;;5.10;4.80;;;;;;;22.67;51.56;100176.63;10415866;28;20037;-82
2022/07/23 18:55:23;;;;;;;5.00;4.60;;;;;;;22.54;51.86;100175.88;10411208;28;20053;-81
2022/07/23 19:00:25;;;;;;;6.20;5.70;;;;;;;22.34;52.94;100179.28;10428415;28;20046;-81
2022/07/23 19:05:26;;;;;;;5.63;5.28;;;;;;;22.23;53.19;100176.59;10437840;28;20060;-81
2022/07/23 19:10:28;;;;;;;4.82;4.53;;;;;;;22.03;53.81;100186.97;10414280;28;20049;-83
2022/07/23 19:15:31;;;;;;;6.30;5.70;;;;;;;22.05;54.14;100193.06;10423454;28;20148;-81
2022/07/23 19:20:33;;;;;;;5.88;5.38;;;;;;;22.08;53.78;100197.31;10436611;28;20072;-79
2022/07/23 19:25:34;;;;;;;5.60;5.25;;;;;;;21.76;55.05;100206.00;10419365;28;20060;-79
2022/07/23 19:30:36;;;;;;;5.95;5.45;;;;;;;21.64;55.16;100215.78;10420824;28;20055;-79
2022/07/23 19:35:37;;;;;;;6.47;5.88;;;;;;;21.55;55.86;100208.44;10401526;28;20115;-81
2022/07/23 19:40:39;;;;;;;6.30;5.90;;;;;;;21.46;56.17;100214.50;10424216;28;20114;-81
2022/07/23 19:45:41;;;;;;;6.30;5.80;;;;;;;21.39;56.38;100221.28;10406628;28;20052;-81
2022/07/23 19:50:43;;;;;;;6.53;6.13;;;;;;;21.36;56.33;100213.47;10406300;28;20099;-80
2022/07/23 19:55:45;;;;;;;6.97;6.38;;;;;;;21.14;57.23;100215.00;10423660;28;20055;-82
2022/07/23 20:00:49;;;;;;;6.82;6.32;;;;;;;21.11;57.50;100236.59;10410329;28;20037;-81
2022/07/23 20:05:51;;;;;;;6.97;6.38;;;;;;;20.87;58.50;100233.03;10408104;28;20053;-83
2022/07/23 20:10:53;;;;;;;7.60;6.90;;;;;;;20.84;58.75;100236.78;10457716;28;20037;-81
2022/07/23 20:15:55;;;;;;;7.53;6.88;;;;;;;20.55;60.47;100238.84;10433712;28;20141;-82
2022/07/23 20:20:56;;;;;;;7.45;6.95;;;;;;;20.51;60.29;100247.19;10407994;28;20049;-82
2022/07/23 20:25:58;;;;;;;7.35;6.85;;;;;;;20.63;59.47;100247.19;10431143;28;20049;-81
2022/07/23 20:31:03;;;;;;;8.48;7.15;;;;;;;20.54;59.92;100253.16;10421286;28;20041;-82
2022/07/23 20:36:07;;;;;;;7.68;6.97;;;;;;;20.51;60.26;100257.88;10407675;28;20461;-81
2022/07/23 20:41:09;;;;;;;7.65;7.05;;;;;;;20.49;60.04;100265.09;10421531;28;20044;-80
2022/07/23 20:46:10;;;;;;;8.68;7.95;;;;;;;20.39;60.48;100270.19;10422702;28;20099;-82
2022/07/23 20:51:12;;;;;;;8.35;7.90;;;;;;;20.44;60.28;100276.06;10420446;28;20048;-80
2022/07/23 20:56:14;;;;;;;8.27;7.82;;;;;;;20.46;60.18;100271.50;10430666;28;20041;-81
2022/07/23 21:01:17;;;;;;;8.10;7.60;;;;;;;20.26;61.17;100277.34;10412589;28;20052;-81
2022/07/23 21:06:18;;;;;;;8.20;7.68;;;;;;;20.30;61.09;100286.84;10414485;28;20491;-80
2022/07/23 21:11:20;;;;;;;7.88;7.40;;;;;;;20.13;61.68;100296.00;10433151;28;20488;-81
2022/07/23 21:16:22;;;;;;;8.75;8.18;;;;;;;20.31;61.00;100293.88;10466494;28;20499;-81
2022/07/23 21:21:24;;;;;;;8.52;7.82;;;;;;;20.49;60.45;100298.00;10410781;28;20128;-79
2022/07/23 21:26:26;;;;;;;9.40;8.82;;;;;;;20.51;60.27;100304.09;10430633;28;20045;-81
2022/07/23 21:31:33;;;;;;;9.10;8.55;;;;;;;20.54;60.11;100308.38;10429227;28;20116;-82
2022/07/23 21:36:35;;;;;;;9.43;8.70;;;;;;;20.19;61.60;100310.72;10426871;28;20061;-82
2022/07/23 21:41:36;;;;;;;9.50;8.90;;;;;;;19.82;62.45;100313.19;10410106;28;20053;-82
2022/07/23 21:46:38;;;;;;;9.70;8.95;;;;;;;19.55;63.50;100316.66;10397954;28;20045;-79
2022/07/23 21:51:44;;;;;;;9.23;8.55;;;;;;;19.40;64.17;100318.50;10438300;28;20126;-79
2022/07/23 21:56:46;;;;;;;8.83;8.23;;;;;;;19.59;62.71;100320.84;10408133;28;20053;-82
2022/07/23 22:01:49;;;;;;;7.65;7.07;;;;;;;19.89;60.26;100330.50;10437282;28;20117;-82
2022/07/23 22:06:50;;;;;;;6.75;6.25;;;;;;;19.86;59.96;100334.22;10441924;28;20056;-83
2022/07/23 22:11:52;;;;;;;6.63;6.03;;;;;;;19.91;59.00;100339.25;10465624;28;20137;-80
2022/07/23 22:16:54;;;;;;;6.70;6.13;;;;;;;19.80;59.01;100331.97;10459418;28;20050;-83
2022/07/23 22:21:55;;;;;;;5.72;5.22;;;;;;;19.54;59.38;100336.28;10438965;28;20088;-84
2022/07/23 22:26:57;;;;;;;5.68;5.20;;;;;;;19.52;58.45;100334.66;10435147;28;20049;-82
2022/07/23 22:31:58;;;;;;;5.82;5.32;;;;;;;19.52;58.37;100340.00;10446412;28;20057;-79
2022/07/23 22:37:00;;;;;;;5.65;4.88;;;;;;;19.58;58.26;100336.94;10445611;28;20041;-80
2022/07/23 22:42:02;;;;;;;5.85;5.43;;;;;;;19.53;58.36;100341.72;10440344;28;20487;-82
2022/07/23 22:47:04;;;;;;;6.53;5.97;;;;;;;19.50;58.51;100339.25;10432919;28;20033;-82
2022/07/23 22:52:05;;;;;;;6.95;6.43;;;;;;;19.36;59.00;100345.47;10430875;28;20048;-82
2022/07/23 22:57:11;;;;;;;6.40;5.80;;;;;;;19.28;58.92;100355.75;10412905;28;20040;-82
2022/07/23 23:02:13;;;;;;;5.30;4.90;;;;;;;19.08;58.62;100354.31;10410307;28;20042;-82
2022/07/23 23:07:14;;;;;;;4.78;4.47;;;;;;;19.02;58.75;100355.56;10427590;28;20061;-82
2022/07/23 23:12:16;;;;;;;5.10;4.60;;;;;;;18.85;58.47;100356.59;10428354;28;20048;-82
2022/07/23 23:17:18;;;;;;;4.43;4.03;;;;;;;18.75;58.51;100352.78;10432882;28;20052;-82
2022/07/23 23:22:19;;;;;;;3.80;3.50;;;;;;;18.53;59.07;100369.16;10443369;28;20044;-80